Time;durP1;ratioP1;P1;durP2;ratioP2;P2;SDS_P1;SDS_P2;PMS_P1;PMS_P2;Temp;Humidity;BMP_temperature;BMP_pressure;BME280_temperature;BME280_humidity;BME280_pressure;Samples;Min_cycle;Max_cycle;Signal;HPM_P1;HPM_P2
2023/08/07 00:02:19;;;;;;;12.20;5.22;;;15.20;99.90;;;;;;5048289;28;259202;-69
2023/08/07 00:04:45;;;;;;;10.13;4.88;;;15.20;99.90;;;;;;5069683;28;20049;-70
2023/08/07 00:07:11;;;;;;;11.40;5.00;;;15.20;99.90;;;;;;5057823;28;267988;-69
2023/08/07 00:09:37;;;;;;;10.55;5.10;;;15.20;99.90;;;;;;5061327;28;20473;-69
2023/08/07 00:12:04;;;;;;;10.50;4.78;;;15.20;99.90;;;;;;5051615;28;261867;-69
2023/08/07 00:14:30;;;;;;;11.55;4.93;;;15.20;99.90;;;;;;5082903;28;20406;-69
2023/08/07 00:16:56;;;;;;;11.15;5.10;;;15.10;99.90;;;;;;5055134;28;266988;-69
2023/08/07 00:19:22;;;;;;;10.00;5.10;;;15.10;99.90;;;;;;5075353;28;20064;-69
2023/08/07 00:21:48;;;;;;;12.13;5.50;;;15.00;99.90;;;;;;5061152;28;255039;-69
2023/08/07 00:24:14;;;;;;;12.55;5.60;;;15.00;99.90;;;;;;5070101;28;20064;-70
2023/08/07 00:26:40;;;;;;;11.03;4.77;;;15.00;99.90;;;;;;5052517;28;267375;-69
2023/08/07 00:29:06;;;;;;;11.60;5.25;;;15.00;99.90;;;;;;5075359;28;20076;-69
2023/08/07 00:31:32;;;;;;;10.23;4.78;;;14.90;99.90;;;;;;5070699;28;20055;-69
2023/08/07 00:33:59;;;;;;;10.85;5.47;;;14.90;99.90;;;;;;5048027;28;259508;-69
2023/08/07 00:36:28;;;;;;;10.88;5.18;;;14.80;99.90;;;;;;5049488;28;20045;-68
2023/08/07 00:38:54;;;;;;;13.82;5.38;;;14.80;99.90;;;;;;5062256;28;259644;-68
2023/08/07 00:41:20;;;;;;;10.57;5.40;;;14.70;99.90;;;;;;5070489;28;20052;-69
2023/08/07 00:43:46;;;;;;;13.60;5.63;;;14.70;99.90;;;;;;5058119;28;257270;-70
2023/08/07 00:46:13;;;;;;;11.10;5.47;;;14.70;99.90;;;;;;5070910;28;20561;-69
2023/08/07 00:48:39;;;;;;;13.00;5.35;;;14.70;99.90;;;;;;5059174;28;265675;-71
2023/08/07 00:51:07;;;;;;;11.73;5.30;;;14.60;99.90;;;;;;5066711;28;20059;-69
2023/08/07 00:53:37;;;;;;;11.68;5.40;;;14.60;99.90;;;;;;5042769;28;273167;-70
2023/08/07 00:56:04;;;;;;;13.10;5.60;;;14.60;99.90;;;;;;5070107;28;20052;-69
2023/08/07 00:58:31;;;;;;;10.05;4.82;;;14.50;99.90;;;;;;5061026;28;257810;-69
2023/08/07 01:00:58;;;;;;;13.43;4.90;;;14.50;99.90;;;;;;5065452;28;20499;-69
2023/08/07 01:03:24;;;;;;;13.02;5.00;;;14.40;99.90;;;;;;5060362;28;254962;-69
2023/08/07 01:05:50;;;;;;;10.93;5.03;;;14.40;99.90;;;;;;5065618;28;20599;-68
2023/08/07 01:08:17;;;;;;;14.30;4.88;;;14.40;99.90;;;;;;5058797;28;262922;-68
2023/08/07 01:10:43;;;;;;;10.63;4.53;;;14.30;99.90;;;;;;5064524;28;20415;-68
2023/08/07 01:13:27;;;;;;;11.80;4.85;;;14.30;99.90;;;;;;5053786;28;118269;-69
2023/08/07 01:15:59;;;;;;;13.52;4.68;;;14.30;99.90;;;;;;5044267;28;20512;-69
2023/08/07 01:18:27;;;;;;;11.57;4.50;;;14.30;99.90;;;;;;5059032;28;270922;-69
2023/08/07 01:20:53;;;;;;;11.60;3.97;;;14.30;99.90;;;;;;5071475;28;20362;-69
2023/08/07 01:23:19;;;;;;;9.98;3.90;;;14.30;99.90;;;;;;5059627;28;253505;-69
2023/08/07 01:25:46;;;;;;;11.10;3.67;;;14.30;99.90;;;;;;5065650;28;20059;-68
2023/08/07 01:28:33;;;;;;;10.75;3.78;;;14.30;99.90;;;;;;5059397;28;264715;-69
2023/08/07 01:31:04;;;;;;;12.70;4.10;;;14.20;99.90;;;;;;5067897;28;20052;-68
2023/08/07 01:33:40;;;;;;;;;;;14.30;99.90;;;;;;5061456;28;26995;-70
2023/08/07 01:36:08;;;;;;;12.10;3.90;;;14.20;99.90;;;;;;5065042;28;19925;-69
2023/08/07 01:38:35;;;;;;;9.18;3.60;;;14.20;99.90;;;;;;5047174;28;241356;-68
2023/08/07 01:41:02;;;;;;;11.10;3.80;;;14.20;99.90;;;;;;5054995;28;20056;-69
2023/08/07 01:43:29;;;;;;;10.02;3.42;;;14.20;99.90;;;;;;5053817;28;62533;-69
2023/08/07 01:45:55;;;;;;;18.50;3.65;;;14.20;99.90;;;;;;5064144;28;20053;-69
2023/08/07 01:48:21;;;;;;;16.27;3.58;;;14.20;99.90;;;;;;5051726;28;276906;-69
2023/08/07 01:50:47;;;;;;;14.82;3.30;;;14.20;99.90;;;;;;5060644;28;20052;-69
2023/08/07 01:53:13;;;;;;;14.73;3.50;;;14.20;99.90;;;;;;5042859;28;269107;-68
2023/08/07 01:55:39;;;;;;;17.13;3.35;;;14.20;99.90;;;;;;5064977;28;20048;-69
2023/08/07 01:58:05;;;;;;;15.27;3.00;;;14.20;99.90;;;;;;5060185;28;255129;-69
2023/08/07 02:00:31;;;;;;;16.98;3.40;;;14.20;99.90;;;;;;5063591;28;20057;-68
2023/08/07 02:02:57;;;;;;;16.23;3.30;;;14.20;99.90;;;;;;5057028;28;276620;-69
2023/08/07 02:05:24;;;;;;;17.73;3.38;;;14.20;99.90;;;;;;5071102;28;20041;-70
2023/08/07 02:07:50;;;;;;;13.57;3.38;;;14.20;99.90;;;;;;5056618;28;138795;-69
2023/08/07 02:10:16;;;;;;;14.80;2.88;;;14.10;99.90;;;;;;5074818;28;20060;-69
2023/08/07 02:12:42;;;;;;;17.95;3.05;;;14.10;99.90;;;;;;5056117;28;254350;-69
2023/08/07 02:15:08;;;;;;;16.95;3.28;;;14.10;99.90;;;;;;5067556;28;20060;-69
2023/08/07 02:17:35;;;;;;;14.88;3.20;;;14.10;99.90;;;;;;5045049;28;208898;-70
2023/08/07 02:20:01;;;;;;;17.48;3.40;;;14.10;99.90;;;;;;5055194;28;20095;-69
2023/08/07 02:22:27;;;;;;;15.15;3.05;;;14.00;99.90;;;;;;5040499;28;273722;-69
2023/08/07 02:24:54;;;;;;;16.35;3.17;;;14.00;99.90;;;;;;5066962;28;20049;-69
2023/08/07 02:27:20;;;;;;;18.20;3.15;;;14.00;99.90;;;;;;5054836;28;275952;-69
2023/08/07 02:29:46;;;;;;;20.48;3.53;;;13.90;99.90;;;;;;5055042;28;20048;-69
2023/08/07 02:32:12;;;;;;;16.17;3.22;;;13.90;99.90;;;;;;5055003;28;264037;-69
2023/08/07 02:34:38;;;;;;;19.73;3.40;;;13.90;99.90;;;;;;5078252;28;20067;-69
2023/08/07 02:37:04;;;;;;;20.90;3.30;;;13.90;99.90;;;;;;5050652;28;269120;-69
2023/08/07 02:39:30;;;;;;;17.52;3.25;;;13.80;99.90;;;;;;5072955;28;20075;-69
2023/08/07 02:41:56;;;;;;;15.60;3.20;;;13.80;99.90;;;;;;5052095;28;272228;-69
2023/08/07 02:44:23;;;;;;;17.15;3.58;;;13.80;99.90;;;;;;5061733;28;20052;-69
2023/08/07 02:46:49;;;;;;;20.98;3.30;;;13.80;99.90;;;;;;5048226;28;275068;-69
2023/08/07 02:49:15;;;;;;;18.40;3.20;;;13.80;99.90;;;;;;5067557;28;20053;-68
2023/08/07 02:51:41;;;;;;;16.88;3.22;;;13.70;99.90;;;;;;5033032;28;259420;-69
2023/08/07 02:54:07;;;;;;;16.08;2.88;;;13.70;99.90;;;;;;5077348;28;20052;-69
2023/08/07 02:56:33;;;;;;;17.95;3.20;;;13.80;99.90;;;;;;5071834;28;20055;-69
2023/08/07 02:59:01;;;;;;;21.35;3.35;;;13.70;99.90;;;;;;5049396;28;20048;-69
2023/08/07 03:01:27;;;;;;;19.80;3.17;;;13.70;99.90;;;;;;5065677;28;20072;-69
2023/08/07 03:03:53;;;;;;;19.90;3.72;;;13.70;99.90;;;;;;5053465;28;259259;-69
2023/08/07 03:06:20;;;;;;;20.42;3.90;;;13.70;99.90;;;;;;5065285;28;20067;-70
2023/08/07 03:08:46;;;;;;;21.80;3.58;;;13.60;99.90;;;;;;5054955;28;267833;-69
2023/08/07 03:11:12;;;;;;;20.08;3.72;;;13.60;99.90;;;;;;5065039;28;20052;-69
2023/08/07 03:13:38;;;;;;;18.23;3.50;;;13.60;99.90;;;;;;5058878;28;265210;-69
2023/08/07 03:16:06;;;;;;;21.50;3.13;;;13.60;99.90;;;;;;5062221;28;20050;-70
2023/08/07 03:18:32;;;;;;;21.77;3.42;;;13.60;99.90;;;;;;5061983;28;259302;-69
2023/08/07 03:20:58;;;;;;;27.90;3.63;;;13.60;99.90;;;;;;5075343;28;20049;-70
2023/08/07 03:23:25;;;;;;;22.00;3.33;;;13.60;99.90;;;;;;5057755;28;259128;-70
2023/08/07 03:26:08;;;;;;;21.10;3.30;;;13.60;99.90;;;;;;5063817;28;20056;-70
2023/08/07 03:28:35;;;;;;;17.77;3.25;;;13.60;99.90;;;;;;5056778;28;264138;-70
2023/08/07 03:31:02;;;;;;;18.23;3.42;;;13.60;99.90;;;;;;5067162;28;20040;-69
2023/08/07 03:33:28;;;;;;;17.95;3.05;;;13.60;99.90;;;;;;5057636;28;248742;-70
2023/08/07 03:35:54;;;;;;;21.08;3.25;;;13.70;99.90;;;;;;5066601;28;20044;-70
2023/08/07 03:38:20;;;;;;;20.73;3.15;;;13.70;99.90;;;;;;5061061;28;265798;-71
2023/08/07 03:40:46;;;;;;;18.25;2.88;;;13.70;99.90;;;;;;5063269;28;20044;-70
2023/08/07 03:43:13;;;;;;;13.85;2.97;;;13.70;99.90;;;;;;5062258;28;252651;-69
2023/08/07 03:45:40;;;;;;;19.20;3.25;;;13.80;99.90;;;;;;5060986;28;20538;-70
2023/08/07 03:48:06;;;;;;;20.05;3.05;;;13.80;99.90;;;;;;5054478;28;275109;-70
2023/08/07 03:50:34;;;;;;;17.13;3.25;;;13.80;99.90;;;;;;5062590;28;20513;-70
2023/08/07 03:53:01;;;;;;;20.48;3.28;;;13.80;99.90;;;;;;5044037;28;128142;-70
2023/08/07 03:55:27;;;;;;;16.63;3.30;;;13.90;99.90;;;;;;5058060;28;20045;-72
2023/08/07 03:57:53;;;;;;;22.95;3.63;;;14.00;99.90;;;;;;5053618;28;184951;-73
2023/08/07 04:00:20;;;;;;;17.33;2.85;;;14.10;99.90;;;;;;5060255;28;20052;-72
2023/08/07 04:02:46;;;;;;;19.13;3.38;;;14.10;99.90;;;;;;5051007;28;254742;-72
2023/08/07 04:05:12;;;;;;;21.90;3.35;;;14.10;99.90;;;;;;5054215;28;20052;-73
2023/08/07 04:07:38;;;;;;;18.20;3.72;;;14.10;99.90;;;;;;5058338;28;273302;-75
2023/08/07 04:10:05;;;;;;;15.45;3.22;;;14.10;99.90;;;;;;5065467;28;20052;-73
2023/08/07 04:12:32;;;;;;;18.00;4.13;;;14.10;99.90;;;;;;5057898;28;266070;-75
2023/08/07 04:14:58;;;;;;;17.15;3.30;;;14.10;99.90;;;;;;5056530;28;20049;-77
2023/08/07 04:17:24;;;;;;;20.08;3.92;;;14.00;99.90;;;;;;5054212;28;267284;-77
2023/08/07 04:19:50;;;;;;;20.17;3.88;;;14.10;99.90;;;;;;5070147;28;20056;-76
2023/08/07 04:22:16;;;;;;;19.52;4.45;;;14.00;99.90;;;;;;5057522;28;267737;-76
2023/08/07 04:24:42;;;;;;;20.85;4.75;;;14.10;99.90;;;;;;5054669;28;20044;-74
2023/08/07 04:27:08;;;;;;;24.73;4.32;;;14.00;99.90;;;;;;5053875;28;267997;-75
2023/08/07 04:29:35;;;;;;;20.35;4.30;;;14.10;99.90;;;;;;5073785;28;20049;-73
2023/08/07 04:32:01;;;;;;;21.85;4.25;;;14.00;99.90;;;;;;5050338;28;190472;-73
2023/08/07 04:34:27;;;;;;;20.27;4.20;;;14.00;99.90;;;;;;5058809;28;20060;-74
2023/08/07 04:36:53;;;;;;;18.85;4.25;;;14.00;99.90;;;;;;5027104;28;253231;-74
2023/08/07 04:39:21;;;;;;;22.40;3.92;;;14.00;99.90;;;;;;5078922;28;20064;-75
2023/08/07 04:41:49;;;;;;;19.63;4.10;;;14.00;99.90;;;;;;5051192;28;259382;-75
2023/08/07 04:44:16;;;;;;;23.45;4.90;;;14.00;99.90;;;;;;5044716;28;20434;-75
2023/08/07 04:46:42;;;;;;;24.90;4.70;;;14.00;99.90;;;;;;5046597;28;273821;-75
2023/08/07 04:49:08;;;;;;;24.27;5.03;;;14.00;99.90;;;;;;5072035;28;20069;-75
2023/08/07 04:51:34;;;;;;;27.00;4.40;;;13.90;99.90;;;;;;5050229;28;278571;-75
2023/08/07 04:54:01;;;;;;;25.13;4.90;;;13.90;99.90;;;;;;5039773;28;220799;-73
2023/08/07 04:56:27;;;;;;;20.35;4.70;;;14.00;99.90;;;;;;5069388;28;20048;-75
2023/08/07 04:58:53;;;;;;;19.63;5.00;;;13.90;99.90;;;;;;5067499;28;262603;-75
2023/08/07 05:01:19;;;;;;;17.48;3.90;;;14.00;99.90;;;;;;5065727;28;20060;-78
2023/08/07 05:03:45;;;;;;;18.10;4.25;;;14.00;99.90;;;;;;5056379;28;20047;-75
2023/08/07 05:06:11;;;;;;;18.63;4.40;;;14.00;99.90;;;;;;5072710;28;20495;-76
2023/08/07 05:08:37;;;;;;;18.40;3.88;;;14.00;99.90;;;;;;5055022;28;31833;-76
2023/08/07 05:11:03;;;;;;;21.02;4.05;;;13.90;99.90;;;;;;5077732;28;20044;-75
2023/08/07 05:13:29;;;;;;;14.43;3.60;;;13.90;99.90;;;;;;5028412;28;114857;-74
2023/08/07 05:15:55;;;;;;;16.17;3.50;;;13.90;99.90;;;;;;5053984;28;20056;-74
2023/08/07 05:18:21;;;;;;;19.25;3.50;;;13.90;99.90;;;;;;5052158;28;127263;-74
2023/08/07 05:20:47;;;;;;;19.73;4.20;;;13.90;99.90;;;;;;5047761;28;20048;-73
2023/08/07 05:23:14;;;;;;;20.48;4.20;;;13.90;99.90;;;;;;5038053;28;127274;-73
2023/08/07 05:25:40;;;;;;;18.33;4.05;;;14.00;99.90;;;;;;5044666;28;20059;-74
2023/08/07 05:28:06;;;;;;;19.55;4.00;;;14.00;99.90;;;;;;5044685;28;139577;-73
2023/08/07 05:30:32;;;;;;;22.00;4.43;;;14.00;99.90;;;;;;5070768;28;20044;-74
2023/08/07 05:32:58;;;;;;;20.48;4.57;;;14.00;99.90;;;;;;5059424;28;99386;-74
2023/08/07 05:35:25;;;;;;;23.27;4.72;;;14.00;99.90;;;;;;5074071;28;20049;-77
2023/08/07 05:37:51;;;;;;;27.45;5.30;;;14.00;99.90;;;;;;5070037;28;257184;-76
2023/08/07 05:40:17;;;;;;;23.45;4.68;;;14.00;99.90;;;;;;5066473;28;20438;-75
2023/08/07 05:42:44;;;;;;;16.73;4.70;;;14.00;99.90;;;;;;5062979;28;266620;-75
2023/08/07 05:45:10;;;;;;;18.50;4.68;;;14.00;99.90;;;;;;5070405;28;20052;-73
2023/08/07 05:47:36;;;;;;;22.38;4.75;;;14.00;99.90;;;;;;5050696;28;277030;-73
2023/08/07 05:50:03;;;;;;;22.70;5.78;;;13.90;99.90;;;;;;5057583;28;20565;-73
2023/08/07 05:52:29;;;;;;;23.70;5.30;;;14.00;99.90;;;;;;5036291;28;261975;-75
2023/08/07 05:54:55;;;;;;;24.65;5.22;;;14.00;99.90;;;;;;5051332;28;20052;-74
2023/08/07 05:57:21;;;;;;;25.40;4.93;;;14.10;99.90;;;;;;5058206;28;251261;-74
2023/08/07 05:59:47;;;;;;;23.65;4.80;;;14.20;99.90;;;;;;5068044;28;20037;-74
2023/08/07 06:02:13;;;;;;;23.13;5.35;;;14.40;99.90;;;;;;5051124;28;270824;-73
2023/08/07 06:04:40;;;;;;;19.00;4.53;;;14.40;99.90;;;;;;5065639;28;20218;-74
2023/08/07 06:07:07;;;;;;;23.05;4.63;;;14.40;99.90;;;;;;5055240;28;270230;-73
2023/08/07 06:09:33;;;;;;;19.00;4.50;;;14.40;99.90;;;;;;5067812;28;20060;-75
2023/08/07 06:11:59;;;;;;;19.65;4.15;;;14.40;99.90;;;;;;5059242;28;37374;-74
2023/08/07 06:14:25;;;;;;;22.60;4.57;;;14.40;99.90;;;;;;5066528;28;20514;-73
2023/08/07 06:16:52;;;;;;;20.95;4.10;;;14.40;99.90;;;;;;5054338;28;267266;-75
2023/08/07 06:19:19;;;;;;;21.02;3.95;;;14.40;99.90;;;;;;5061246;28;20057;-73
2023/08/07 06:21:46;;;;;;;22.90;4.50;;;14.50;99.90;;;;;;5051647;28;268602;-74
2023/08/07 06:24:12;;;;;;;22.67;4.53;;;14.50;99.90;;;;;;5083312;28;20524;-74
2023/08/07 06:26:38;;;;;;;19.98;3.88;;;14.50;99.90;;;;;;5051107;28;270594;-73
2023/08/07 06:29:04;;;;;;;18.60;4.03;;;14.40;99.90;;;;;;5073330;28;20057;-72
2023/08/07 06:31:30;;;;;;;17.60;3.60;;;14.40;99.90;;;;;;5069114;28;20060;-72
2023/08/07 06:33:56;;;;;;;18.20;3.90;;;14.50;99.90;;;;;;5071168;28;150748;-72
2023/08/07 06:36:22;;;;;;;16.75;4.40;;;14.50;99.90;;;;;;5073779;28;20139;-72
2023/08/07 06:38:49;;;;;;;22.27;4.88;;;14.60;99.90;;;;;;5063999;28;254162;-73
2023/08/07 06:41:15;;;;;;;18.65;4.00;;;14.60;99.90;;;;;;5065147;28;20048;-73
2023/08/07 06:43:41;;;;;;;23.40;3.92;;;14.60;99.90;;;;;;5046031;28;163864;-73
2023/08/07 06:46:07;;;;;;;20.98;3.53;;;14.60;99.90;;;;;;5062697;28;20052;-73
2023/08/07 06:48:33;;;;;;;15.93;3.63;;;14.70;99.90;;;;;;5066110;28;262194;-73
2023/08/07 06:50:59;;;;;;;18.48;3.55;;;14.80;99.90;;;;;;5069196;28;20044;-77
2023/08/07 06:53:26;;;;;;;18.13;3.38;;;14.80;99.90;;;;;;5024253;28;99299;-80
2023/08/07 06:55:52;;;;;;;17.48;3.50;;;14.70;99.90;;;;;;5061396;28;20049;-77
2023/08/07 06:58:18;;;;;;;20.48;3.80;;;14.70;99.90;;;;;;5053854;28;70039;-80
2023/08/07 07:00:44;;;;;;;16.33;3.75;;;14.70;99.90;;;;;;5039093;28;20625;-78
2023/08/07 07:03:10;;;;;;;16.33;3.28;;;14.80;99.90;;;;;;5043224;28;129804;-76
2023/08/07 07:05:36;;;;;;;14.45;3.38;;;15.00;99.90;;;;;;5046683;28;20054;-75
2023/08/07 07:08:02;;;;;;;13.27;3.35;;;15.30;99.90;;;;;;5072350;28;42107;-75
2023/08/07 07:10:29;;;;;;;16.92;3.22;;;15.20;99.90;;;;;;5058080;28;20458;-74
2023/08/07 07:12:55;;;;;;;14.75;3.22;;;15.10;99.90;;;;;;5031774;28;193196;-75
2023/08/07 07:15:21;;;;;;;10.25;2.58;;;15.30;99.90;;;;;;5059002;28;20055;-74
2023/08/07 07:17:47;;;;;;;14.07;2.70;;;15.70;99.90;;;;;;5057729;28;274815;-75
2023/08/07 07:20:13;;;;;;;14.60;2.28;;;15.40;99.90;;;;;;5058452;28;20048;-75
2023/08/07 07:22:39;;;;;;;11.05;2.30;;;15.30;99.90;;;;;;5055644;28;276513;-74
2023/08/07 07:25:06;;;;;;;11.93;2.75;;;15.20;99.90;;;;;;5074900;28;20052;-74
2023/08/07 07:27:32;;;;;;;17.50;2.72;;;15.10;99.90;;;;;;5055479;28;270221;-74
2023/08/07 07:29:58;;;;;;;15.05;2.78;;;15.00;99.90;;;;;;5065616;28;20499;-74
2023/08/07 07:32:26;;;;;;;9.60;1.65;;;15.00;99.90;;;;;;5054126;28;274644;-74
2023/08/07 07:34:52;;;;;;;11.88;2.15;;;14.90;99.90;;;;;;5069431;28;20057;-74
2023/08/07 07:37:18;;;;;;;11.57;2.35;;;15.00;99.90;;;;;;5058893;28;263800;-73
2023/08/07 07:39:44;;;;;;;9.27;2.00;;;15.10;99.90;;;;;;5041961;28;20541;-75
2023/08/07 07:42:10;;;;;;;13.63;2.72;;;15.20;99.90;;;;;;5054441;28;250710;-73
2023/08/07 07:44:36;;;;;;;12.32;2.25;;;15.20;99.90;;;;;;5078489;28;20056;-72
2023/08/07 07:47:02;;;;;;;12.30;2.17;;;15.30;99.90;;;;;;5057557;28;45103;-71
2023/08/07 07:49:28;;;;;;;9.73;2.10;;;15.30;99.90;;;;;;5063979;28;20057;-73
2023/08/07 07:51:54;;;;;;;11.85;2.58;;;15.00;99.90;;;;;;5028937;28;277464;-74
2023/08/07 07:54:21;;;;;;;10.18;2.40;;;15.00;99.90;;;;;;5052071;28;20583;-75
2023/08/07 07:56:47;;;;;;;15.80;2.17;;;15.00;99.90;;;;;;5048550;28;263930;-72
2023/08/07 07:59:13;;;;;;;9.32;1.90;;;14.90;99.90;;;;;;5070836;28;20064;-73
2023/08/07 08:01:39;;;;;;;12.77;2.67;;;14.70;99.90;;;;;;5039593;28;267319;-73
2023/08/07 08:04:06;;;;;;;12.00;2.65;;;14.80;99.90;;;;;;5083500;28;20043;-73
2023/08/07 08:06:32;;;;;;;10.00;1.95;;;15.50;99.90;;;;;;5061551;28;21387;-73
2023/08/07 08:08:59;;;;;;;12.65;2.85;;;15.50;99.90;;;;;;5031810;28;146602;-72
2023/08/07 08:11:25;;;;;;;14.40;2.85;;;15.50;99.90;;;;;;5065076;28;20057;-73
2023/08/07 08:13:51;;;;;;;14.98;3.13;;;15.60;99.90;;;;;;5064186;28;259366;-73
2023/08/07 08:16:17;;;;;;;10.35;2.30;;;15.40;99.90;;;;;;5065894;28;20056;-73
2023/08/07 08:18:43;;;;;;;14.38;2.90;;;15.20;99.90;;;;;;5058250;28;268695;-73
2023/08/07 08:21:09;;;;;;;13.75;3.17;;;15.00;99.90;;;;;;5068226;28;20052;-73
2023/08/07 08:23:35;;;;;;;10.80;2.33;;;14.90;99.90;;;;;;5060439;28;260246;-72
2023/08/07 08:26:01;;;;;;;11.25;2.95;;;14.70;99.90;;;;;;5068147;28;20491;-72
2023/08/07 08:28:27;;;;;;;13.18;2.67;;;14.80;99.90;;;;;;5053066;28;272424;-73
2023/08/07 08:30:54;;;;;;;10.70;2.42;;;14.90;99.90;;;;;;5068858;28;20063;-75
2023/08/07 08:33:20;;;;;;;12.15;2.60;;;14.50;99.90;;;;;;5055784;28;255735;-76
2023/08/07 08:35:46;;;;;;;12.35;3.03;;;14.30;99.90;;;;;;5066822;28;20427;-74
2023/08/07 08:38:12;;;;;;;10.10;2.58;;;14.50;99.90;;;;;;5064834;28;283492;-73
2023/08/07 08:40:39;;;;;;;15.77;3.25;;;14.50;99.90;;;;;;5068735;28;20538;-72
2023/08/07 08:43:06;;;;;;;14.15;3.45;;;14.80;99.90;;;;;;5065594;28;262862;-73
2023/08/07 08:45:36;;;;;;;14.90;3.58;;;15.00;99.90;;;;;;5063225;28;20064;-73
2023/08/07 08:48:04;;;;;;;21.27;3.07;;;15.20;99.90;;;;;;5063677;28;271875;-72
2023/08/07 08:50:31;;;;;;;13.80;2.83;;;15.40;99.90;;;;;;5066579;28;20290;-75
2023/08/07 08:52:58;;;;;;;13.93;3.22;;;15.70;99.90;;;;;;5035086;28;270410;-72
2023/08/07 08:55:26;;;;;;;14.85;3.10;;;16.20;99.90;;;;;;5067299;28;20511;-73
2023/08/07 08:57:56;;;;;;;16.75;2.80;;;16.90;99.90;;;;;;5060641;28;268825;-73
2023/08/07 09:00:25;;;;;;;14.50;3.30;;;17.30;99.90;;;;;;5059340;28;20056;-72
2023/08/07 09:02:52;;;;;;;13.40;2.55;;;17.50;99.90;;;;;;5064161;28;247034;-73
2023/08/07 09:05:22;;;;;;;15.95;3.03;;;17.50;99.90;;;;;;5064723;28;20040;-73
2023/08/07 09:07:49;;;;;;;9.27;2.25;;;17.80;99.90;;;;;;5057467;28;20776;-72
2023/08/07 09:10:16;;;;;;;14.93;2.85;;;18.10;99.90;;;;;;5046544;28;20151;-72
2023/08/07 09:12:53;;;;;;;11.57;2.30;;;18.20;99.90;;;;;;5048624;28;274152;-72
2023/08/07 09:15:20;;;;;;;13.43;2.60;;;17.60;99.90;;;;;;5070222;28;20049;-73
2023/08/07 09:17:47;;;;;;;13.00;2.35;;;17.70;99.90;;;;;;5057254;28;165333;-73
2023/08/07 09:20:14;;;;;;;13.13;2.50;;;17.60;99.90;;;;;;5067796;28;20060;-72
2023/08/07 09:22:41;;;;;;;11.65;2.30;;;18.00;99.90;;;;;;5057976;28;208188;-72
2023/08/07 09:25:09;;;;;;;10.13;2.05;;;17.90;99.90;;;;;;5061729;28;20060;-72
2023/08/07 09:27:38;;;;;;;11.73;2.10;;;17.70;99.90;;;;;;5059564;28;254871;-72
2023/08/07 09:30:11;;;;;;;12.82;2.38;;;18.30;99.90;;;;;;5068444;28;20486;-72
2023/08/07 09:32:39;;;;;;;11.45;2.38;;;18.70;99.90;;;;;;5066924;28;209578;-71
2023/08/07 09:35:06;;;;;;;16.77;2.55;;;18.70;98.30;;;;;;5074533;28;20071;-73
2023/08/07 09:37:32;;;;;;;10.07;2.42;;;18.40;99.60;;;;;;5047993;28;234161;-71
2023/08/07 09:40:02;;;;;;;11.02;2.15;;;17.80;99.80;;;;;;5074048;28;20049;-72
2023/08/07 09:42:32;;;;;;;10.02;2.50;;;17.10;99.90;;;;;;5057729;28;275566;-71
2023/08/07 09:45:02;;;;;;;9.93;2.10;;;16.70;99.90;;;;;;5069893;28;20048;-70
2023/08/07 09:47:29;;;;;;;11.32;2.28;;;16.60;99.90;;;;;;5057205;28;56682;-70
2023/08/07 09:49:56;;;;;;;17.02;2.60;;;16.40;99.90;;;;;;5069167;28;20060;-69
2023/08/07 09:52:25;;;;;;;9.60;2.08;;;16.20;99.90;;;;;;5035509;28;191950;-69
2023/08/07 09:54:55;;;;;;;14.68;2.60;;;16.10;99.90;;;;;;5060318;28;20079;-71
2023/08/07 09:57:21;;;;;;;13.53;2.60;;;17.30;99.90;;;;;;5053691;28;267527;-71
2023/08/07 09:59:50;;;;;;;10.23;2.40;;;17.80;99.90;;;;;;5071071;28;20076;-71
2023/08/07 10:02:16;;;;;;;15.50;2.90;;;17.90;99.90;;;;;;5055901;28;257888;-70
2023/08/07 10:04:42;;;;;;;11.43;1.90;;;18.40;99.90;;;;;;5072497;28;20067;-70
2023/08/07 10:07:12;;;;;;;12.52;2.58;;;18.60;99.50;;;;;;5055312;28;264708;-70
2023/08/07 10:09:39;;;;;;;14.57;2.33;;;18.60;99.90;;;;;;5066171;28;20064;-70
2023/08/07 10:12:05;;;;;;;13.73;2.53;;;18.40;99.90;;;;;;5054931;28;271927;-70
2023/08/07 10:14:31;;;;;;;15.25;3.15;;;17.80;99.90;;;;;;5072689;28;20068;-71
2023/08/07 10:16:58;;;;;;;14.35;2.63;;;17.80;99.90;;;;;;5049187;28;273166;-70
2023/08/07 10:19:24;;;;;;;9.70;2.20;;;17.70;99.90;;;;;;5071618;28;20055;-70
2023/08/07 10:21:52;;;;;;;11.63;2.20;;;17.40;99.90;;;;;;5052325;28;258347;-70
2023/08/07 10:24:19;;;;;;;10.52;2.45;;;17.30;99.90;;;;;;5071840;28;20075;-69
2023/08/07 10:26:46;;;;;;;10.77;2.15;;;17.40;99.90;;;;;;5046469;28;267106;-68
2023/08/07 10:29:17;;;;;;;12.10;2.30;;;17.20;99.90;;;;;;5070483;28;20061;-70
2023/08/07 10:31:45;;;;;;;11.63;2.30;;;17.20;99.90;;;;;;5051155;28;266899;-69
2023/08/07 10:34:11;;;;;;;12.23;2.08;;;17.60;99.90;;;;;;5080029;28;20061;-70
2023/08/07 10:36:40;;;;;;;11.55;2.50;;;17.60;99.90;;;;;;5037192;28;452237;-70
2023/08/07 10:39:08;;;;;;;10.77;2.13;;;17.60;99.90;;;;;;5066162;28;20052;-71
2023/08/07 10:41:44;;;;;;;13.95;2.80;;;17.50;99.90;;;;;;5058582;28;266909;-68
2023/08/07 10:44:22;;;;;;;11.25;2.47;;;17.20;99.90;;;;;;5072667;28;20052;-69
2023/08/07 10:46:49;;;;;;;12.85;2.47;;;17.10;99.90;;;;;;5051230;28;271815;-70
2023/08/07 10:49:35;;;;;;;12.60;2.72;;;16.80;99.90;;;;;;5053692;28;20068;-70
2023/08/07 10:52:12;;;;;;;10.93;2.00;;;16.80;99.90;;;;;;5030904;28;254727;-70
2023/08/07 10:54:42;;;;;;;12.05;2.45;;;16.80;99.90;;;;;;5057967;28;20049;-70
2023/08/07 10:57:16;;;;;;;10.45;2.38;;;16.80;99.90;;;;;;5052627;28;221316;-69
2023/08/07 10:59:57;;;;;;;9.85;1.98;;;17.00;99.90;;;;;;5068719;28;20049;-69
2023/08/07 11:02:26;;;;;;;;;;;17.60;99.90;;;;;;5050610;28;255774;-70
2023/08/07 11:04:53;;;;;;;15.40;2.35;;;18.20;99.90;;;;;;5070682;28;19916;-69
2023/08/07 11:07:27;;;;;;;12.30;2.33;;;18.50;99.90;;;;;;5055078;28;274539;-69
2023/08/07 11:09:56;;;;;;;13.32;2.45;;;18.30;99.80;;;;;;5064259;28;20053;-69
2023/08/07 11:12:29;;;;;;;12.00;2.08;;;18.10;99.90;;;;;;5055458;28;269577;-68
2023/08/07 11:14:59;;;;;;;6.78;1.42;;;17.60;99.90;;;;;;5074608;28;20040;-68
2023/08/07 11:17:26;;;;;;;9.23;1.65;;;17.50;99.90;;;;;;5055306;28;265039;-68
2023/08/07 11:19:53;;;;;;;12.48;2.00;;;17.70;99.90;;;;;;5076340;28;20048;-69
2023/08/07 11:22:19;;;;;;;9.50;1.63;;;18.00;99.90;;;;;;5057348;28;84955;-69
2023/08/07 11:24:50;;;;;;;9.05;1.70;;;17.60;99.40;;;;;;5057817;28;20057;-69
2023/08/07 11:27:16;;;;;;;9.50;1.73;;;17.40;99.70;;;;;;5055011;28;269327;-69
2023/08/07 11:29:47;;;;;;;12.95;2.20;;;17.30;99.60;;;;;;5074663;28;20052;-69
2023/08/07 11:32:14;;;;;;;9.65;1.92;;;17.50;99.90;;;;;;5053850;28;256677;-69
2023/08/07 11:34:40;;;;;;;9.05;2.03;;;18.30;99.00;;;;;;5076938;28;20040;-69
2023/08/07 11:37:06;;;;;;;8.60;1.77;;;18.60;99.40;;;;;;5043769;28;204111;-69
2023/08/07 11:39:32;;;;;;;11.48;1.95;;;18.70;98.50;;;;;;5066532;28;20055;-68
2023/08/07 11:41:59;;;;;;;6.93;1.80;;;18.80;98.90;;;;;;5053357;28;283081;-68
2023/08/07 11:44:26;;;;;;;8.82;1.80;;;18.90;98.60;;;;;;5049617;28;20060;-68
2023/08/07 11:46:52;;;;;;;7.72;1.65;;;18.70;98.50;;;;;;5049553;28;275806;-68
2023/08/07 11:49:19;;;;;;;9.02;1.65;;;18.30;98.50;;;;;;5066611;28;20076;-68
2023/08/07 11:51:46;;;;;;;11.43;2.25;;;18.00;99.50;;;;;;5031905;28;267154;-68
2023/08/07 11:54:15;;;;;;;8.05;1.75;;;17.90;99.70;;;;;;5057987;28;20504;-68
2023/08/07 11:56:42;;;;;;;12.10;2.08;;;18.00;99.90;;;;;;5050300;28;268435;-68
2023/08/07 11:59:09;;;;;;;12.40;2.25;;;18.00;99.50;;;;;;5074216;28;20057;-67
2023/08/07 12:01:38;;;;;;;8.15;2.00;;;18.40;99.90;;;;;;5043560;28;258727;-67
2023/08/07 12:04:10;;;;;;;10.18;1.98;;;18.50;99.10;;;;;;5073684;28;20052;-68
2023/08/07 12:06:39;;;;;;;9.88;1.85;;;18.70;99.30;;;;;;5051202;28;268586;-67
2023/08/07 12:09:12;;;;;;;8.63;1.67;;;18.60;99.40;;;;;;5071865;28;20061;-68
2023/08/07 12:11:38;;;;;;;7.47;1.83;;;18.70;99.70;;;;;;5047350;28;279860;-67
2023/08/07 12:14:04;;;;;;;10.77;2.08;;;18.70;99.50;;;;;;5077572;28;20053;-67
2023/08/07 12:16:34;;;;;;;15.60;2.63;;;18.50;99.90;;;;;;5065995;28;20075;-68
2023/08/07 12:19:01;;;;;;;11.23;1.77;;;17.90;99.90;;;;;;5055021;28;20051;-68
2023/08/07 12:21:28;;;;;;;13.43;2.20;;;17.40;99.90;;;;;;5071111;28;20048;-68
2023/08/07 12:23:58;;;;;;;9.55;2.00;;;16.80;99.90;;;;;;5049928;28;275527;-68
2023/08/07 12:26:24;;;;;;;12.05;2.30;;;16.70;99.90;;;;;;5063019;28;20060;-68
2023/08/07 12:28:52;;;;;;;13.32;2.70;;;16.80;99.90;;;;;;5054915;28;257546;-68
2023/08/07 12:31:18;;;;;;;11.52;2.47;;;16.90;99.90;;;;;;5061551;28;20053;-69
2023/08/07 12:33:44;;;;;;;10.70;2.33;;;17.00;99.90;;;;;;5063955;28;260331;-68